< Typhoon 199428 1994 Season Typhoon 199430 >
Typhoon 199429 (SETH)
General InformationTrack Information on Google MapsDetailed Wind InformationList of All Images || NewsDisaster Info.ResourceGoogle EarthGE AnimationAtom FeedGeoJSON
Detalied Best Track (Time Zone = UTC)
Year Month Day Hour Lat. Long. Pressure (hPa) Wind (kt) Class Image Chart
1994 10 2 12 8.5 160.0 1006 0 2 Image Chart
1994 10 2 18 8.8 157.5 1004 0 2 Image Chart
1994 10 3 00 9.5 155.0 1002 0 2 Image Chart
1994 10 3 06 10.0 153.7 1000 35 3 Image Chart
1994 10 3 12 10.4 152.5 998 35 3 Image Chart
1994 10 3 18 10.8 151.2 996 40 3 Image Chart
1994 10 4 00 11.3 149.3 994 40 3 Image Chart
1994 10 4 06 11.4 147.8 992 45 3 Image Chart
1994 10 4 12 11.4 145.9 990 45 3 Image Chart
1994 10 4 18 11.6 144.4 985 50 4 Image Chart
1994 10 5 00 12.0 142.9 985 50 4 Image Chart
1994 10 5 06 12.5 141.1 985 50 4 Image Chart
1994 10 5 12 13.0 139.6 980 55 4 Image Chart
1994 10 5 18 13.4 137.6 975 60 4 Image Chart
1994 10 6 00 13.6 136.0 970 65 5 Image Chart
1994 10 6 06 14.3 134.6 965 70 5 Image Chart
1994 10 6 12 15.1 133.2 960 75 5 Image Chart
1994 10 6 18 15.7 131.3 955 80 5 Image Chart
1994 10 7 00 16.2 129.9 945 85 5 Image Chart
1994 10 7 06 17.0 128.5 935 90 5 Image Chart
1994 10 7 12 17.6 127.4 925 100 5 Image Chart
1994 10 7 18 18.3 126.4 915 105 5 Image Chart
1994 10 8 00 19.1 125.6 910 110 5 Image Chart
1994 10 8 06 19.8 125.0 910 110 5 Image Chart
1994 10 8 12 20.6 124.5 915 105 5 Image Chart
1994 10 8 15 21.0 124.3 915 105 5 Image Chart
1994 10 8 18 21.3 124.1 920 100 5 Image Chart
1994 10 8 21 21.6 124.0 920 100 5 Image Chart
1994 10 9 00 21.9 123.9 925 95 5 Image Chart
1994 10 9 03 22.4 123.9 930 95 5 Image Chart
1994 10 9 06 23.0 123.9 935 90 5 Image Chart
1994 10 9 09 23.7 123.8 940 90 5 Image Chart
1994 10 9 12 24.2 123.6 940 90 5 Image Chart
1994 10 9 15 24.7 123.4 945 85 5 Image Chart
1994 10 9 18 25.2 123.1 945 85 5 Image Chart
1994 10 9 21 25.6 122.8 945 85 5 Image Chart
1994 10 10 00 25.8 122.7 950 80 5 Image Chart
1994 10 10 03 26.0 122.7 950 80 5 Image Chart
1994 10 10 06 26.3 122.7 955 75 5 Image Chart
1994 10 10 12 27.2 122.8 960 70 5 Image Chart
1994 10 10 18 28.3 123.3 970 60 4 Image Chart
1994 10 11 00 29.5 123.8 975 55 4 Image Chart
1994 10 11 06 30.7 124.1 975 55 4 Image Chart
1994 10 11 12 32.0 125.0 975 55 4 Image Chart
1994 10 11 15 32.7 125.6 975 55 4 Image Chart
1994 10 11 18 33.9 126.7 980 50 4 Image Chart
1994 10 11 21 35.2 127.8 980 50 4 Image Chart
1994 10 12 00 36.7 129.2 985 50 4 Image Chart
1994 10 12 03 38.0 130.2 986 0 6 Image Chart
1994 10 12 06 39.3 131.7 988 0 6 Image Chart
1994 10 12 12 42.2 134.6 988 0 6 Image Chart
1994 10 12 18 45.0 137.8 986 0 6 Image Chart
1994 10 13 00 46.0 140.0 986 0 6 Image Chart
1994 10 13 06 47.0 142.0 984 0 6 Image Chart
1994 10 13 12 48.0 145.0 984 0 6 Image Chart
1994 10 13 18 48.5 147.0 984 0 6 Image Chart
1994 10 14 00 49.0 150.0 984 0 6 Image Chart
1994 10 14 06 49.0 154.0 984 0 6 Image Chart
1994 10 14 12 49.5 157.0 984 0 6 Image Chart
1994 10 14 18 50.0 160.0 984 0 6 Image Chart
1994 10 15 00 50.5 163.0 984 0 6 Image Chart
1994 10 15 06 51.0 165.0 984 0 6 Image Chart
1994 10 15 12 51.0 167.0 984 0 6 Image Chart
1994 10 15 18 51.5 169.5 984 0 6 Image Chart
1994 10 16 00 51.5 172.0 980 0 6 Image Chart
1994 10 16 06 51.5 174.5 980 0 6 Image Chart
1994 10 16 12 51.5 177.5 984 0 6 Image Chart
1994 10 16 18 51.5 182.0 988 0 6 Image Chart
Japan Meteorological Agency Best Track Data | Correction Date : 1995-01-30
< Typhoon 199428 1994 Season Typhoon 199430 >

Help